Terminal Aerodrome Forecast
Issued by NWS

Home | Current Version | Previous Version | Text Only | Print | Product List | Glossary On
Versions: 1 2 3 4 5 6 7 8 9 10 11 12 13 14 15 16 17 18 19
000
FTUS43 KABR 240008 CCA
TAFPIR
TAF COR
KPIR 240008Z 2400/2424 11010KT P6SM VCSH OVC020
     FM240800 08010KT 5SM -RA BR OVC010
     FM241200 05011KT 3SM -RA BR OVC007=

USA.gov is the U.S. government's official web portal to all federal, state and local government web resources and services.